sensor_id;sensor_type;location;lat;lon;timestamp;pressure;altitude;pressure_sealevel;temperature;humidity
30618;BME280;17384;51.214;9.202;2023-02-18T00:00:13;99204.50;;;8.45;89.16
30618;BME280;17384;51.214;9.202;2023-02-18T00:02:39;99205.19;;;8.54;88.86
30618;BME280;17384;51.214;9.202;2023-02-18T00:05:05;99211.38;;;8.47;88.54
30618;BME280;17384;51.214;9.202;2023-02-18T00:07:36;99210.66;;;8.39;88.96
30618;BME280;17384;51.214;9.202;2023-02-18T00:10:05;99198.53;;;8.35;89.01
30618;BME280;17384;51.214;9.202;2023-02-18T00:12:31;99211.69;;;8.38;88.96
30618;BME280;17384;51.214;9.202;2023-02-18T00:14:57;99201.78;;;8.45;88.78
30618;BME280;17384;51.214;9.202;2023-02-18T00:17:22;99199.31;;;8.50;88.62
30618;BME280;17384;51.214;9.202;2023-02-18T00:19:48;99214.09;;;8.47;88.34
30618;BME280;17384;51.214;9.202;2023-02-18T00:22:14;99217.75;;;8.40;88.60
30618;BME280;17384;51.214;9.202;2023-02-18T00:24:39;99204.03;;;8.41;88.83
30618;BME280;17384;51.214;9.202;2023-02-18T00:27:05;99209.25;;;8.28;88.58
30618;BME280;17384;51.214;9.202;2023-02-18T00:29:31;99199.13;;;8.15;88.50
30618;BME280;17384;51.214;9.202;2023-02-18T00:31:57;99193.38;;;8.04;89.32
30618;BME280;17384;51.214;9.202;2023-02-18T00:34:23;99182.47;;;8.12;89.03
30618;BME280;17384;51.214;9.202;2023-02-18T00:36:48;99188.91;;;8.11;88.61
30618;BME280;17384;51.214;9.202;2023-02-18T00:39:14;99184.59;;;8.17;88.73
30618;BME280;17384;51.214;9.202;2023-02-18T00:41:40;99179.38;;;8.15;88.29
30618;BME280;17384;51.214;9.202;2023-02-18T00:44:05;99176.03;;;8.13;88.57
30618;BME280;17384;51.214;9.202;2023-02-18T00:46:31;99186.00;;;8.12;88.43
30618;BME280;17384;51.214;9.202;2023-02-18T00:48:57;99166.63;;;8.09;88.80
30618;BME280;17384;51.214;9.202;2023-02-18T00:51:23;99167.09;;;8.12;88.53
30618;BME280;17384;51.214;9.202;2023-02-18T00:53:50;99162.91;;;7.95;88.51
30618;BME280;17384;51.214;9.202;2023-02-18T00:56:15;99157.69;;;7.94;89.06
30618;BME280;17384;51.214;9.202;2023-02-18T00:58:41;99165.19;;;7.92;88.29
30618;BME280;17384;51.214;9.202;2023-02-18T01:01:07;99170.59;;;7.92;88.78
30618;BME280;17384;51.214;9.202;2023-02-18T01:03:34;99162.41;;;7.85;88.84
30618;BME280;17384;51.214;9.202;2023-02-18T01:06:00;99172.75;;;7.81;89.08
30618;BME280;17384;51.214;9.202;2023-02-18T01:08:25;99169.75;;;7.76;89.28
30618;BME280;17384;51.214;9.202;2023-02-18T01:10:56;99171.53;;;7.69;89.67
30618;BME280;17384;51.214;9.202;2023-02-18T01:13:22;99173.50;;;7.75;89.60
30618;BME280;17384;51.214;9.202;2023-02-18T01:15:47;99191.00;;;7.79;89.46
30618;BME280;17384;51.214;9.202;2023-02-18T01:18:13;99174.78;;;7.79;89.36
30618;BME280;17384;51.214;9.202;2023-02-18T01:20:40;99181.31;;;7.85;89.33
30618;BME280;17384;51.214;9.202;2023-02-18T01:23:06;99177.78;;;7.85;89.20
30618;BME280;17384;51.214;9.202;2023-02-18T01:25:32;99169.09;;;7.89;89.25
30618;BME280;17384;51.214;9.202;2023-02-18T01:27:58;99167.47;;;7.95;89.05
30618;BME280;17384;51.214;9.202;2023-02-18T01:30:24;99165.44;;;7.97;88.25
30618;BME280;17384;51.214;9.202;2023-02-18T01:32:50;99167.94;;;8.13;87.45
30618;BME280;17384;51.214;9.202;2023-02-18T01:35:17;99168.31;;;7.95;88.25
30618;BME280;17384;51.214;9.202;2023-02-18T01:37:43;99162.31;;;7.78;88.62
30618;BME280;17384;51.214;9.202;2023-02-18T01:40:18;99148.16;;;7.76;88.70
30618;BME280;17384;51.214;9.202;2023-02-18T01:42:44;99140.91;;;7.77;89.52
30618;BME280;17384;51.214;9.202;2023-02-18T01:48:29;99153.91;;;7.88;88.88
30618;BME280;17384;51.214;9.202;2023-02-18T01:51:03;99163.25;;;7.86;89.09
30618;BME280;17384;51.214;9.202;2023-02-18T01:53:39;99160.47;;;7.64;89.28
30618;BME280;17384;51.214;9.202;2023-02-18T01:56:10;99163.47;;;7.55;89.91
30618;BME280;17384;51.214;9.202;2023-02-18T01:58:38;99157.59;;;7.51;90.41
30618;BME280;17384;51.214;9.202;2023-02-18T02:01:04;99140.84;;;7.56;90.90
30618;BME280;17384;51.214;9.202;2023-02-18T02:03:30;99150.72;;;7.48;90.76
30618;BME280;17384;51.214;9.202;2023-02-18T02:05:55;99142.88;;;7.54;90.93
30618;BME280;17384;51.214;9.202;2023-02-18T02:08:21;99124.00;;;7.54;90.51
30618;BME280;17384;51.214;9.202;2023-02-18T02:11:00;99131.25;;;7.53;90.84
30618;BME280;17384;51.214;9.202;2023-02-18T02:22:03;99135.53;;;7.47;91.32
30618;BME280;17384;51.214;9.202;2023-02-18T02:27:13;99129.22;;;7.55;91.66
30618;BME280;17384;51.214;9.202;2023-02-18T02:32:38;99128.56;;;7.53;91.35
30618;BME280;17384;51.214;9.202;2023-02-18T02:51:42;99119.09;;;7.78;89.96
30618;BME280;17384;51.214;9.202;2023-02-18T02:54:16;99118.00;;;7.73;90.17
30618;BME280;17384;51.214;9.202;2023-02-18T02:56:42;99113.69;;;7.78;90.17
30618;BME280;17384;51.214;9.202;2023-02-18T02:59:13;99122.25;;;7.82;90.31
30618;BME280;17384;51.214;9.202;2023-02-18T03:07:36;99111.66;;;7.80;90.43
30618;BME280;17384;51.214;9.202;2023-02-18T03:12:50;99110.75;;;7.95;90.32
30618;BME280;17384;51.214;9.202;2023-02-18T03:15:30;99103.94;;;7.99;90.06
30618;BME280;17384;51.214;9.202;2023-02-18T03:18:04;99115.53;;;7.93;90.27
30618;BME280;17384;51.214;9.202;2023-02-18T03:20:42;99107.03;;;7.96;90.22
30618;BME280;17384;51.214;9.202;2023-02-18T03:23:14;99108.97;;;8.02;90.32
30618;BME280;17384;51.214;9.202;2023-02-18T03:25:41;99110.84;;;8.01;90.29
30618;BME280;17384;51.214;9.202;2023-02-18T03:28:12;99107.09;;;8.02;90.45
30618;BME280;17384;51.214;9.202;2023-02-18T03:30:45;99093.84;;;8.07;90.17
30618;BME280;17384;51.214;9.202;2023-02-18T03:33:16;99097.81;;;8.47;88.29
30618;BME280;17384;51.214;9.202;2023-02-18T03:35:43;99086.41;;;8.52;88.09
30618;BME280;17384;51.214;9.202;2023-02-18T03:38:25;99084.78;;;8.58;87.64
30618;BME280;17384;51.214;9.202;2023-02-18T03:40:54;99067.06;;;8.55;87.60
30618;BME280;17384;51.214;9.202;2023-02-18T03:43:19;99062.50;;;8.56;87.75
30618;BME280;17384;51.214;9.202;2023-02-18T03:45:45;99054.13;;;8.51;88.44
30618;BME280;17384;51.214;9.202;2023-02-18T03:48:10;99049.16;;;8.47;88.19
30618;BME280;17384;51.214;9.202;2023-02-18T03:50:36;99049.53;;;8.44;88.61
30618;BME280;17384;51.214;9.202;2023-02-18T03:53:01;99043.94;;;8.46;88.93
30618;BME280;17384;51.214;9.202;2023-02-18T03:55:27;99047.22;;;8.41;88.47
30618;BME280;17384;51.214;9.202;2023-02-18T03:57:52;99043.22;;;8.37;88.23
30618;BME280;17384;51.214;9.202;2023-02-18T04:00:18;99045.81;;;8.45;88.83
30618;BME280;17384;51.214;9.202;2023-02-18T04:02:44;99038.94;;;8.49;88.09
30618;BME280;17384;51.214;9.202;2023-02-18T04:05:11;99030.84;;;8.49;88.20
30618;BME280;17384;51.214;9.202;2023-02-18T04:07:36;99029.59;;;8.52;87.84
30618;BME280;17384;51.214;9.202;2023-02-18T04:10:03;99016.91;;;8.46;88.13
30618;BME280;17384;51.214;9.202;2023-02-18T04:12:29;99030.84;;;8.49;87.83
30618;BME280;17384;51.214;9.202;2023-02-18T04:14:54;99028.97;;;8.50;87.65
30618;BME280;17384;51.214;9.202;2023-02-18T04:17:20;99031.94;;;8.55;87.47
30618;BME280;17384;51.214;9.202;2023-02-18T04:19:45;99037.13;;;8.57;87.37
30618;BME280;17384;51.214;9.202;2023-02-18T04:22:11;99020.13;;;8.63;86.97
30618;BME280;17384;51.214;9.202;2023-02-18T04:24:36;99022.44;;;8.66;86.76
30618;BME280;17384;51.214;9.202;2023-02-18T04:27:02;99016.00;;;8.67;86.73
30618;BME280;17384;51.214;9.202;2023-02-18T04:29:27;99029.53;;;8.67;86.79
30618;BME280;17384;51.214;9.202;2023-02-18T04:31:53;99023.09;;;8.68;86.50
30618;BME280;17384;51.214;9.202;2023-02-18T04:34:19;99039.75;;;8.71;86.57
30618;BME280;17384;51.214;9.202;2023-02-18T04:36:44;99029.56;;;8.73;86.35
30618;BME280;17384;51.214;9.202;2023-02-18T04:39:10;99038.53;;;8.74;86.37
30618;BME280;17384;51.214;9.202;2023-02-18T04:41:35;99023.97;;;8.75;85.96
30618;BME280;17384;51.214;9.202;2023-02-18T04:44:01;99019.81;;;8.79;85.87
30618;BME280;17384;51.214;9.202;2023-02-18T04:46:26;99024.38;;;8.78;86.20
30618;BME280;17384;51.214;9.202;2023-02-18T04:48:52;99017.31;;;8.77;86.38
30618;BME280;17384;51.214;9.202;2023-02-18T04:51:17;99017.50;;;8.76;86.62
30618;BME280;17384;51.214;9.202;2023-02-18T04:53:43;99018.13;;;8.78;86.22
30618;BME280;17384;51.214;9.202;2023-02-18T04:56:08;99011.06;;;8.77;86.20
30618;BME280;17384;51.214;9.202;2023-02-18T04:58:34;98999.63;;;8.81;85.77
30618;BME280;17384;51.214;9.202;2023-02-18T05:01:01;98999.44;;;8.83;85.94
30618;BME280;17384;51.214;9.202;2023-02-18T05:03:27;98987.78;;;8.82;85.49
30618;BME280;17384;51.214;9.202;2023-02-18T05:05:52;98987.97;;;8.81;85.68
30618;BME280;17384;51.214;9.202;2023-02-18T05:08:18;99002.16;;;8.83;85.71
30618;BME280;17384;51.214;9.202;2023-02-18T05:10:44;98995.69;;;8.84;85.33
30618;BME280;17384;51.214;9.202;2023-02-18T05:13:09;98986.75;;;8.83;85.34
30618;BME280;17384;51.214;9.202;2023-02-18T05:15:35;99003.81;;;8.84;85.19
30618;BME280;17384;51.214;9.202;2023-02-18T05:18:00;98995.50;;;8.86;84.76
30618;BME280;17384;51.214;9.202;2023-02-18T05:20:26;98979.31;;;8.92;84.50
30618;BME280;17384;51.214;9.202;2023-02-18T05:22:51;98991.81;;;8.93;84.20
30618;BME280;17384;51.214;9.202;2023-02-18T05:25:17;98972.66;;;8.95;84.39
30618;BME280;17384;51.214;9.202;2023-02-18T05:27:42;98985.38;;;8.94;84.46
30618;BME280;17384;51.214;9.202;2023-02-18T05:30:08;98966.03;;;8.97;84.33
30618;BME280;17384;51.214;9.202;2023-02-18T05:32:33;98975.38;;;8.95;84.68
30618;BME280;17384;51.214;9.202;2023-02-18T05:34:59;98962.03;;;8.93;84.92
30618;BME280;17384;51.214;9.202;2023-02-18T05:37:24;98956.41;;;8.88;85.20
30618;BME280;17384;51.214;9.202;2023-02-18T05:39:50;98955.56;;;8.88;85.25
30618;BME280;17384;51.214;9.202;2023-02-18T05:42:15;98957.44;;;8.87;85.28
30618;BME280;17384;51.214;9.202;2023-02-18T05:44:41;98955.13;;;8.84;85.30
30618;BME280;17384;51.214;9.202;2023-02-18T05:47:09;98961.16;;;8.86;85.31
30618;BME280;17384;51.214;9.202;2023-02-18T05:49:35;98947.00;;;8.84;85.51
30618;BME280;17384;51.214;9.202;2023-02-18T05:52:02;98948.28;;;8.88;85.05
30618;BME280;17384;51.214;9.202;2023-02-18T05:54:28;98944.31;;;8.84;85.56
30618;BME280;17384;51.214;9.202;2023-02-18T05:56:53;98949.06;;;8.82;85.67
30618;BME280;17384;51.214;9.202;2023-02-18T05:59:19;98940.97;;;8.82;85.63
30618;BME280;17384;51.214;9.202;2023-02-18T06:01:45;98949.72;;;8.84;85.42
30618;BME280;17384;51.214;9.202;2023-02-18T06:04:11;98938.25;;;8.82;85.62
30618;BME280;17384;51.214;9.202;2023-02-18T06:06:37;98936.00;;;8.86;85.08
30618;BME280;17384;51.214;9.202;2023-02-18T06:09:03;98933.09;;;8.87;85.25
30618;BME280;17384;51.214;9.202;2023-02-18T06:11:29;98934.13;;;8.86;85.35
30618;BME280;17384;51.214;9.202;2023-02-18T06:13:55;98914.34;;;8.86;85.53
30618;BME280;17384;51.214;9.202;2023-02-18T06:16:20;98925.38;;;8.84;85.33
30618;BME280;17384;51.214;9.202;2023-02-18T06:18:46;98910.81;;;8.85;85.42
30618;BME280;17384;51.214;9.202;2023-02-18T06:21:11;98909.13;;;8.84;85.39
30618;BME280;17384;51.214;9.202;2023-02-18T06:23:37;98924.09;;;8.80;85.54
30618;BME280;17384;51.214;9.202;2023-02-18T06:26:02;98920.16;;;8.82;85.65
30618;BME280;17384;51.214;9.202;2023-02-18T06:28:28;98907.06;;;8.86;85.29
30618;BME280;17384;51.214;9.202;2023-02-18T06:30:53;98910.81;;;8.85;85.49
30618;BME280;17384;51.214;9.202;2023-02-18T06:33:19;98908.72;;;8.87;85.85
30618;BME280;17384;51.214;9.202;2023-02-18T06:35:56;98908.50;;;8.82;85.78
30618;BME280;17384;51.214;9.202;2023-02-18T06:38:22;98905.00;;;8.88;85.47
30618;BME280;17384;51.214;9.202;2023-02-18T06:40:48;98907.69;;;8.88;85.62
30618;BME280;17384;51.214;9.202;2023-02-18T06:43:14;98906.22;;;8.86;85.56
30618;BME280;17384;51.214;9.202;2023-02-18T06:45:39;98914.53;;;8.84;85.82
30618;BME280;17384;51.214;9.202;2023-02-18T06:48:05;98903.31;;;8.87;85.81
30618;BME280;17384;51.214;9.202;2023-02-18T06:50:30;98901.25;;;8.89;85.60
30618;BME280;17384;51.214;9.202;2023-02-18T06:52:56;98897.50;;;8.90;85.28
30618;BME280;17384;51.214;9.202;2023-02-18T06:55:21;98891.06;;;8.91;85.49
30618;BME280;17384;51.214;9.202;2023-02-18T06:57:47;98873.16;;;8.90;85.30
30618;BME280;17384;51.214;9.202;2023-02-18T07:00:13;98875.66;;;8.92;85.76
30618;BME280;17384;51.214;9.202;2023-02-18T07:02:39;98870.25;;;8.92;85.69
30618;BME280;17384;51.214;9.202;2023-02-18T07:05:04;98879.84;;;8.94;85.70
30618;BME280;17384;51.214;9.202;2023-02-18T07:07:30;98873.78;;;8.92;85.54
30618;BME280;17384;51.214;9.202;2023-02-18T07:09:56;98864.66;;;8.93;85.06
30618;BME280;17384;51.214;9.202;2023-02-18T07:12:21;98866.94;;;8.96;85.10
30618;BME280;17384;51.214;9.202;2023-02-18T07:14:47;98867.19;;;9.01;85.22
30618;BME280;17384;51.214;9.202;2023-02-18T07:17:12;98862.16;;;8.98;85.14
30618;BME280;17384;51.214;9.202;2023-02-18T07:19:39;98866.53;;;8.99;85.23
30618;BME280;17384;51.214;9.202;2023-02-18T07:22:04;98857.38;;;9.00;85.12
30618;BME280;17384;51.214;9.202;2023-02-18T07:24:30;98862.59;;;9.02;84.89
30618;BME280;17384;51.214;9.202;2023-02-18T07:26:55;98865.06;;;9.03;84.84
30618;BME280;17384;51.214;9.202;2023-02-18T07:29:20;98854.03;;;9.05;84.79
30618;BME280;17384;51.214;9.202;2023-02-18T07:31:46;98869.25;;;9.06;84.72
30618;BME280;17384;51.214;9.202;2023-02-18T07:34:11;98864.03;;;9.04;84.84
30618;BME280;17384;51.214;9.202;2023-02-18T07:39:07;98870.47;;;9.03;84.87
30618;BME280;17384;51.214;9.202;2023-02-18T07:41:33;98866.34;;;9.07;84.74
30618;BME280;17384;51.214;9.202;2023-02-18T07:43:58;98871.13;;;9.05;85.25
30618;BME280;17384;51.214;9.202;2023-02-18T07:46:24;98878.41;;;9.05;85.31
30618;BME280;17384;51.214;9.202;2023-02-18T07:48:50;98860.50;;;9.04;85.53
30618;BME280;17384;51.214;9.202;2023-02-18T07:51:16;98870.72;;;9.02;85.57
30618;BME280;17384;51.214;9.202;2023-02-18T07:53:42;98875.50;;;9.00;85.63
30618;BME280;17384;51.214;9.202;2023-02-18T07:56:09;98868.84;;;9.02;85.43
30618;BME280;17384;51.214;9.202;2023-02-18T07:58:37;98856.34;;;9.01;85.56
30618;BME280;17384;51.214;9.202;2023-02-18T08:01:11;98858.03;;;9.02;85.98
30618;BME280;17384;51.214;9.202;2023-02-18T08:03:39;98866.75;;;8.98;86.36
30618;BME280;17384;51.214;9.202;2023-02-18T08:06:06;98846.34;;;8.95;86.68
30618;BME280;17384;51.214;9.202;2023-02-18T08:08:32;98854.84;;;8.92;86.83
30618;BME280;17384;51.214;9.202;2023-02-18T08:11:01;98844.25;;;8.91;86.91
30618;BME280;17384;51.214;9.202;2023-02-18T08:13:32;98855.25;;;8.89;87.21
30618;BME280;17384;51.214;9.202;2023-02-18T08:15:57;98836.53;;;8.88;87.84
30618;BME280;17384;51.214;9.202;2023-02-18T08:18:24;98847.56;;;8.86;87.27
30618;BME280;17384;51.214;9.202;2023-02-18T08:20:52;98849.41;;;8.86;87.19
30618;BME280;17384;51.214;9.202;2023-02-18T08:23:19;98857.97;;;8.89;87.55
30618;BME280;17384;51.214;9.202;2023-02-18T08:25:46;98842.78;;;8.88;86.74
30618;BME280;17384;51.214;9.202;2023-02-18T08:28:12;98833.41;;;8.91;86.99
30618;BME280;17384;51.214;9.202;2023-02-18T08:30:37;98820.53;;;8.93;86.66
30618;BME280;17384;51.214;9.202;2023-02-18T08:33:03;98826.75;;;8.93;86.80
30618;BME280;17384;51.214;9.202;2023-02-18T08:35:28;98825.13;;;8.99;86.68
30618;BME280;17384;51.214;9.202;2023-02-18T08:37:54;98833.44;;;9.04;85.78
30618;BME280;17384;51.214;9.202;2023-02-18T08:40:20;98829.28;;;9.08;85.96
30618;BME280;17384;51.214;9.202;2023-02-18T08:42:45;98830.97;;;9.15;85.09
30618;BME280;17384;51.214;9.202;2023-02-18T08:45:11;98831.19;;;9.21;84.82
30618;BME280;17384;51.214;9.202;2023-02-18T08:47:36;98829.13;;;9.23;83.56
30618;BME280;17384;51.214;9.202;2023-02-18T08:50:03;98821.41;;;9.26;83.57
30618;BME280;17384;51.214;9.202;2023-02-18T08:52:29;98834.75;;;9.28;83.40
30618;BME280;17384;51.214;9.202;2023-02-18T08:54:54;98837.47;;;9.28;83.56
30618;BME280;17384;51.214;9.202;2023-02-18T08:57:20;98841.84;;;9.29;83.36
30618;BME280;17384;51.214;9.202;2023-02-18T08:59:45;98841.38;;;9.32;82.92
30618;BME280;17384;51.214;9.202;2023-02-18T09:02:12;98837.00;;;9.31;82.91
30618;BME280;17384;51.214;9.202;2023-02-18T09:04:38;98833.91;;;9.34;83.59
30618;BME280;17384;51.214;9.202;2023-02-18T09:07:04;98828.50;;;9.27;83.30
30618;BME280;17384;51.214;9.202;2023-02-18T09:09:29;98838.91;;;9.37;82.88
30618;BME280;17384;51.214;9.202;2023-02-18T09:11:55;98836.81;;;9.39;82.87
30618;BME280;17384;51.214;9.202;2023-02-18T09:14:20;98831.00;;;9.42;81.60
30618;BME280;17384;51.214;9.202;2023-02-18T09:16:46;98838.50;;;9.46;82.25
30618;BME280;17384;51.214;9.202;2023-02-18T09:19:11;98837.66;;;9.46;81.93
30618;BME280;17384;51.214;9.202;2023-02-18T09:21:37;98853.50;;;9.49;82.70
30618;BME280;17384;51.214;9.202;2023-02-18T09:24:03;98842.69;;;9.49;82.48
30618;BME280;17384;51.214;9.202;2023-02-18T09:26:28;98837.66;;;9.59;81.40
30618;BME280;17384;51.214;9.202;2023-02-18T09:28:55;98829.97;;;9.56;81.93
30618;BME280;17384;51.214;9.202;2023-02-18T09:31:23;98840.56;;;9.58;81.96
30618;BME280;17384;51.214;9.202;2023-02-18T09:33:54;98827.03;;;9.58;82.09
30618;BME280;17384;51.214;9.202;2023-02-18T09:36:20;98837.69;;;9.53;82.63
30618;BME280;17384;51.214;9.202;2023-02-18T09:38:46;98834.94;;;9.59;82.05
30618;BME280;17384;51.214;9.202;2023-02-18T09:43:56;98820.19;;;9.55;81.06
30618;BME280;17384;51.214;9.202;2023-02-18T09:46:27;98811.84;;;9.57;80.29
30618;BME280;17384;51.214;9.202;2023-02-18T09:48:55;98822.25;;;9.60;80.47
30618;BME280;17384;51.214;9.202;2023-02-18T09:51:21;98828.09;;;9.70;79.83
30618;BME280;17384;51.214;9.202;2023-02-18T09:53:47;98813.50;;;9.64;78.20
30618;BME280;17384;51.214;9.202;2023-02-18T09:56:15;98816.63;;;9.68;79.42
30618;BME280;17384;51.214;9.202;2023-02-18T09:58:43;98814.34;;;9.78;78.26
30618;BME280;17384;51.214;9.202;2023-02-18T10:03:57;98804.91;;;10.07;74.48
30618;BME280;17384;51.214;9.202;2023-02-18T10:06:29;98820.13;;;10.08;75.41
30618;BME280;17384;51.214;9.202;2023-02-18T10:08:56;98811.75;;;10.23;75.22
30618;BME280;17384;51.214;9.202;2023-02-18T10:11:34;98821.78;;;10.22;73.98
30618;BME280;17384;51.214;9.202;2023-02-18T10:14:02;98826.78;;;10.12;74.05
30618;BME280;17384;51.214;9.202;2023-02-18T10:16:30;98804.28;;;10.05;72.66
30618;BME280;17384;51.214;9.202;2023-02-18T10:19:03;98818.25;;;9.95;73.81
30618;BME280;17384;51.214;9.202;2023-02-18T10:21:32;98830.78;;;9.76;74.46
30618;BME280;17384;51.214;9.202;2023-02-18T10:26:26;98812.88;;;9.82;73.93
30618;BME280;17384;51.214;9.202;2023-02-18T10:28:53;98828.09;;;9.83;73.69
30618;BME280;17384;51.214;9.202;2023-02-18T10:31:27;98813.88;;;9.88;74.45
30618;BME280;17384;51.214;9.202;2023-02-18T10:36:35;98807.63;;;9.94;72.78
30618;BME280;17384;51.214;9.202;2023-02-18T10:50:41;98800.13;;;9.89;69.67
30618;BME280;17384;51.214;9.202;2023-02-18T10:53:35;98819.09;;;9.89;71.15
30618;BME280;17384;51.214;9.202;2023-02-18T10:56:01;98793.69;;;9.83;70.38
30618;BME280;17384;51.214;9.202;2023-02-18T10:58:42;98786.38;;;9.91;70.28
30618;BME280;17384;51.214;9.202;2023-02-18T11:01:19;98767.19;;;9.99;69.87
30618;BME280;17384;51.214;9.202;2023-02-18T11:04:04;98765.28;;;10.06;69.28
30618;BME280;17384;51.214;9.202;2023-02-18T11:12:06;98780.41;;;9.56;71.64
30618;BME280;17384;51.214;9.202;2023-02-18T11:14:47;98781.81;;;9.58;73.02
30618;BME280;17384;51.214;9.202;2023-02-18T11:17:25;98763.31;;;9.42;72.79
30618;BME280;17384;51.214;9.202;2023-02-18T11:19:55;98775.56;;;9.64;72.54
30618;BME280;17384;51.214;9.202;2023-02-18T11:22:30;98777.28;;;9.52;72.49
30618;BME280;17384;51.214;9.202;2023-02-18T11:24:59;98790.59;;;9.47;73.03
30618;BME280;17384;51.214;9.202;2023-02-18T11:27:41;98810.81;;;9.51;72.18
30618;BME280;17384;51.214;9.202;2023-02-18T11:30:23;98782.69;;;9.39;72.08
30618;BME280;17384;51.214;9.202;2023-02-18T11:32:53;98783.09;;;9.36;72.64
30618;BME280;17384;51.214;9.202;2023-02-18T11:35:26;98802.66;;;9.38;72.08
30618;BME280;17384;51.214;9.202;2023-02-18T11:37:55;98796.00;;;9.27;72.52
30618;BME280;17384;51.214;9.202;2023-02-18T11:40:30;98787.66;;;9.35;72.71
30618;BME280;17384;51.214;9.202;2023-02-18T11:45:35;98796.84;;;9.28;74.26
30618;BME280;17384;51.214;9.202;2023-02-18T11:48:07;98792.69;;;9.25;73.80
30618;BME280;17384;51.214;9.202;2023-02-18T11:50:34;98791.63;;;9.33;73.97
30618;BME280;17384;51.214;9.202;2023-02-18T11:52:59;98791.00;;;9.37;73.80
30618;BME280;17384;51.214;9.202;2023-02-18T11:55:27;98790.38;;;9.42;74.44
30618;BME280;17384;51.214;9.202;2023-02-18T11:58:04;98800.56;;;9.33;75.09
30618;BME280;17384;51.214;9.202;2023-02-18T12:02:59;98803.50;;;9.32;74.80
30618;BME280;17384;51.214;9.202;2023-02-18T12:05:27;98801.63;;;9.19;74.61
30618;BME280;17384;51.214;9.202;2023-02-18T12:08:16;98798.91;;;9.19;74.07
30618;BME280;17384;51.214;9.202;2023-02-18T12:10:49;98795.38;;;9.19;74.24
30618;BME280;17384;51.214;9.202;2023-02-18T12:21:26;98796.63;;;9.49;74.95
30618;BME280;17384;51.214;9.202;2023-02-18T12:32:19;98792.66;;;9.38;74.77
30618;BME280;17384;51.214;9.202;2023-02-18T12:37:59;98793.91;;;9.36;74.81
30618;BME280;17384;51.214;9.202;2023-02-18T12:40:51;98802.88;;;9.36;74.87
30618;BME280;17384;51.214;9.202;2023-02-18T12:46:20;98793.09;;;9.29;75.35
30618;BME280;17384;51.214;9.202;2023-02-18T12:57:02;98789.53;;;9.68;74.71
30618;BME280;17384;51.214;9.202;2023-02-18T13:05:17;98793.06;;;9.68;74.62
30618;BME280;17384;51.214;9.202;2023-02-18T13:08:14;98795.56;;;9.63;74.65
30618;BME280;17384;51.214;9.202;2023-02-18T13:13:36;98790.16;;;9.63;74.46
30618;BME280;17384;51.214;9.202;2023-02-18T13:16:08;98789.75;;;9.66;75.98
30618;BME280;17384;51.214;9.202;2023-02-18T13:18:41;98794.94;;;9.61;75.43
30618;BME280;17384;51.214;9.202;2023-02-18T13:21:12;98785.56;;;9.64;74.81
30618;BME280;17384;51.214;9.202;2023-02-18T13:26:12;98786.63;;;9.69;75.71
30618;BME280;17384;51.214;9.202;2023-02-18T13:28:43;98797.25;;;9.64;75.36
30618;BME280;17384;51.214;9.202;2023-02-18T13:34:16;98776.63;;;9.63;76.27
30618;BME280;17384;51.214;9.202;2023-02-18T13:39:15;98785.56;;;9.70;75.00
30618;BME280;17384;51.214;9.202;2023-02-18T13:41:46;98784.16;;;9.55;75.69
30618;BME280;17384;51.214;9.202;2023-02-18T13:49:25;98779.97;;;9.52;75.47
30618;BME280;17384;51.214;9.202;2023-02-18T13:51:54;98784.34;;;9.53;75.93
30618;BME280;17384;51.214;9.202;2023-02-18T13:54:44;98782.25;;;9.62;75.32
30618;BME280;17384;51.214;9.202;2023-02-18T13:57:29;98786.03;;;9.54;76.03
30618;BME280;17384;51.214;9.202;2023-02-18T14:00:03;98792.69;;;9.45;76.44
30618;BME280;17384;51.214;9.202;2023-02-18T14:02:32;98778.09;;;9.46;76.36
30618;BME280;17384;51.214;9.202;2023-02-18T14:22:47;98807.03;;;9.39;77.03
30618;BME280;17384;51.214;9.202;2023-02-18T14:27:40;98809.13;;;9.43;77.64
30618;BME280;17384;51.214;9.202;2023-02-18T14:30:16;98788.50;;;9.36;78.28
30618;BME280;17384;51.214;9.202;2023-02-18T14:32:44;98807.03;;;9.39;78.17
30618;BME280;17384;51.214;9.202;2023-02-18T14:40:57;98804.97;;;9.28;78.81
30618;BME280;17384;51.214;9.202;2023-02-18T14:51:18;98798.94;;;9.52;77.77
30618;BME280;17384;51.214;9.202;2023-02-18T14:53:46;98802.06;;;9.49;79.02
30618;BME280;17384;51.214;9.202;2023-02-18T14:56:15;98801.22;;;9.48;78.58
30618;BME280;17384;51.214;9.202;2023-02-18T14:58:47;98779.78;;;9.54;78.05
30618;BME280;17384;51.214;9.202;2023-02-18T15:01:22;98797.25;;;9.58;78.37
30618;BME280;17384;51.214;9.202;2023-02-18T15:03:49;98795.38;;;9.58;78.02
30618;BME280;17384;51.214;9.202;2023-02-18T15:06:31;98796.44;;;9.50;77.62
30618;BME280;17384;51.214;9.202;2023-02-18T15:08:59;98802.66;;;9.58;77.42
30618;BME280;17384;51.214;9.202;2023-02-18T15:11:40;98797.47;;;9.56;77.96
30618;BME280;17384;51.214;9.202;2023-02-18T15:14:13;98798.94;;;9.52;78.36
30618;BME280;17384;51.214;9.202;2023-02-18T15:16:41;98792.88;;;9.63;77.51
30618;BME280;17384;51.214;9.202;2023-02-18T15:19:14;98794.94;;;9.74;76.21
30618;BME280;17384;51.214;9.202;2023-02-18T15:21:44;98809.13;;;9.63;76.47
30618;BME280;17384;51.214;9.202;2023-02-18T15:24:29;98814.13;;;9.53;77.16
30618;BME280;17384;51.214;9.202;2023-02-18T15:27:01;98824.53;;;9.63;76.26
30618;BME280;17384;51.214;9.202;2023-02-18T15:29:30;98818.53;;;9.54;76.67
30618;BME280;17384;51.214;9.202;2023-02-18T15:31:57;98814.97;;;9.47;76.78
30618;BME280;17384;51.214;9.202;2023-02-18T15:34:34;98823.09;;;9.67;76.26
30618;BME280;17384;51.214;9.202;2023-02-18T15:37:02;98818.50;;;9.61;76.25
30618;BME280;17384;51.214;9.202;2023-02-18T15:39:38;98820.78;;;9.44;76.89
30618;BME280;17384;51.214;9.202;2023-02-18T15:42:27;98826.41;;;9.62;75.90
30618;BME280;17384;51.214;9.202;2023-02-18T15:45:03;98821.19;;;9.61;75.94
30618;BME280;17384;51.214;9.202;2023-02-18T15:47:30;98823.53;;;9.57;76.89
30618;BME280;17384;51.214;9.202;2023-02-18T15:50:14;98829.31;;;9.61;76.48
30618;BME280;17384;51.214;9.202;2023-02-18T15:52:41;98829.75;;;9.51;77.09
30618;BME280;17384;51.214;9.202;2023-02-18T15:55:12;98818.53;;;9.54;76.97
30618;BME280;17384;51.214;9.202;2023-02-18T15:57:40;98812.88;;;9.49;77.55
30618;BME280;17384;51.214;9.202;2023-02-18T16:00:25;98818.72;;;9.53;77.35